sensor_id;sensor_type;location;lat;lon;timestamp;temperature;humidity
8095;DHT22;4090;49.270;8.696;2022-11-21T00:02:11;8.00;99.90
8095;DHT22;4090;49.270;8.696;2022-11-21T00:04:52;8.00;99.90
8095;DHT22;4090;49.270;8.696;2022-11-21T00:07:34;7.90;99.90
8095;DHT22;4090;49.270;8.696;2022-11-21T00:10:16;7.90;99.90
8095;DHT22;4090;49.270;8.696;2022-11-21T00:12:58;7.90;99.90
8095;DHT22;4090;49.270;8.696;2022-11-21T00:15:41;7.80;99.90
8095;DHT22;4090;49.270;8.696;2022-11-21T00:18:23;7.80;99.90
8095;DHT22;4090;49.270;8.696;2022-11-21T00:21:05;7.80;99.90
8095;DHT22;4090;49.270;8.696;2022-11-21T00:23:47;7.70;99.90
8095;DHT22;4090;49.270;8.696;2022-11-21T00:26:29;7.80;99.90
8095;DHT22;4090;49.270;8.696;2022-11-21T00:29:10;7.80;99.90
8095;DHT22;4090;49.270;8.696;2022-11-21T00:31:54;7.80;99.90
8095;DHT22;4090;49.270;8.696;2022-11-21T00:34:37;7.70;99.90
8095;DHT22;4090;49.270;8.696;2022-11-21T00:37:19;7.70;99.90
8095;DHT22;4090;49.270;8.696;2022-11-21T00:40:00;7.60;99.90
8095;DHT22;4090;49.270;8.696;2022-11-21T00:42:42;7.60;99.90
8095;DHT22;4090;49.270;8.696;2022-11-21T00:45:24;7.70;99.90
8095;DHT22;4090;49.270;8.696;2022-11-21T00:48:07;7.70;99.90
8095;DHT22;4090;49.270;8.696;2022-11-21T00:50:49;7.80;99.90
8095;DHT22;4090;49.270;8.696;2022-11-21T00:53:31;7.70;99.90
8095;DHT22;4090;49.270;8.696;2022-11-21T00:56:12;7.80;99.90
8095;DHT22;4090;49.270;8.696;2022-11-21T00:58:54;7.80;99.90
8095;DHT22;4090;49.270;8.696;2022-11-21T01:01:36;7.80;99.90
8095;DHT22;4090;49.270;8.696;2022-11-21T01:04:19;7.80;99.90
8095;DHT22;4090;49.270;8.696;2022-11-21T01:07:01;7.80;99.90
8095;DHT22;4090;49.270;8.696;2022-11-21T01:09:42;7.80;99.90
8095;DHT22;4090;49.270;8.696;2022-11-21T01:12:24;7.80;99.90
8095;DHT22;4090;49.270;8.696;2022-11-21T01:15:07;7.80;99.90
8095;DHT22;4090;49.270;8.696;2022-11-21T01:17:48;7.70;99.90
8095;DHT22;4090;49.270;8.696;2022-11-21T01:20:32;7.80;99.90
8095;DHT22;4090;49.270;8.696;2022-11-21T01:23:13;7.80;99.90
8095;DHT22;4090;49.270;8.696;2022-11-21T01:25:59;7.70;99.90
8095;DHT22;4090;49.270;8.696;2022-11-21T01:28:41;7.90;99.90
8095;DHT22;4090;49.270;8.696;2022-11-21T01:31:23;7.60;99.90
8095;DHT22;4090;49.270;8.696;2022-11-21T01:34:05;7.70;99.90
8095;DHT22;4090;49.270;8.696;2022-11-21T01:36:48;7.60;99.90
8095;DHT22;4090;49.270;8.696;2022-11-21T01:39:30;7.60;99.90
8095;DHT22;4090;49.270;8.696;2022-11-21T01:42:12;7.50;99.90
8095;DHT22;4090;49.270;8.696;2022-11-21T01:44:54;7.50;99.90
8095;DHT22;4090;49.270;8.696;2022-11-21T01:47:35;7.50;99.90
8095;DHT22;4090;49.270;8.696;2022-11-21T01:50:17;7.50;99.90
8095;DHT22;4090;49.270;8.696;2022-11-21T01:53:00;7.50;99.90
8095;DHT22;4090;49.270;8.696;2022-11-21T01:55:42;7.60;99.90
8095;DHT22;4090;49.270;8.696;2022-11-21T01:58:24;7.60;99.90
8095;DHT22;4090;49.270;8.696;2022-11-21T02:01:06;7.50;99.90
8095;DHT22;4090;49.270;8.696;2022-11-21T02:03:52;7.60;99.90
8095;DHT22;4090;49.270;8.696;2022-11-21T02:06:34;7.60;99.90
8095;DHT22;4090;49.270;8.696;2022-11-21T02:09:19;7.60;99.90
8095;DHT22;4090;49.270;8.696;2022-11-21T02:12:01;7.60;99.90
8095;DHT22;4090;49.270;8.696;2022-11-21T02:14:45;7.60;99.90
8095;DHT22;4090;49.270;8.696;2022-11-21T02:17:27;8.00;99.90
8095;DHT22;4090;49.270;8.696;2022-11-21T02:20:10;7.70;99.90
8095;DHT22;4090;49.270;8.696;2022-11-21T02:22:53;7.80;99.90
8095;DHT22;4090;49.270;8.696;2022-11-21T02:25:40;7.70;99.90
8095;DHT22;4090;49.270;8.696;2022-11-21T02:28:23;7.70;99.90
8095;DHT22;4090;49.270;8.696;2022-11-21T02:31:06;7.70;99.90
8095;DHT22;4090;49.270;8.696;2022-11-21T02:33:48;7.60;99.90
8095;DHT22;4090;49.270;8.696;2022-11-21T02:36:34;7.80;99.90
8095;DHT22;4090;49.270;8.696;2022-11-21T02:39:18;7.80;99.90
8095;DHT22;4090;49.270;8.696;2022-11-21T02:42:04;7.80;99.90
8095;DHT22;4090;49.270;8.696;2022-11-21T02:44:50;7.80;99.90
8095;DHT22;4090;49.270;8.696;2022-11-21T02:47:34;7.70;99.90
8095;DHT22;4090;49.270;8.696;2022-11-21T02:50:18;7.80;99.90
8095;DHT22;4090;49.270;8.696;2022-11-21T02:53:00;7.80;99.90
8095;DHT22;4090;49.270;8.696;2022-11-21T02:55:42;7.80;99.90
8095;DHT22;4090;49.270;8.696;2022-11-21T02:58:25;7.90;99.90
8095;DHT22;4090;49.270;8.696;2022-11-21T03:01:07;7.80;99.90
8095;DHT22;4090;49.270;8.696;2022-11-21T03:03:49;7.80;99.90
8095;DHT22;4090;49.270;8.696;2022-11-21T03:06:31;7.70;99.90
8095;DHT22;4090;49.270;8.696;2022-11-21T03:09:15;7.70;99.90
8095;DHT22;4090;49.270;8.696;2022-11-21T03:11:57;7.70;99.90
8095;DHT22;4090;49.270;8.696;2022-11-21T03:14:40;7.80;99.90
8095;DHT22;4090;49.270;8.696;2022-11-21T03:17:22;7.70;99.90
8095;DHT22;4090;49.270;8.696;2022-11-21T03:20:05;7.80;99.90
8095;DHT22;4090;49.270;8.696;2022-11-21T03:22:47;7.70;99.90
8095;DHT22;4090;49.270;8.696;2022-11-21T03:25:29;7.80;99.90
8095;DHT22;4090;49.270;8.696;2022-11-21T03:28:11;7.80;99.90
8095;DHT22;4090;49.270;8.696;2022-11-21T03:30:54;7.90;99.90
8095;DHT22;4090;49.270;8.696;2022-11-21T03:33:36;7.60;99.90
8095;DHT22;4090;49.270;8.696;2022-11-21T03:36:18;7.60;99.90
8095;DHT22;4090;49.270;8.696;2022-11-21T03:38:59;7.70;99.90
8095;DHT22;4090;49.270;8.696;2022-11-21T03:41:41;7.70;99.90
8095;DHT22;4090;49.270;8.696;2022-11-21T03:44:23;7.70;99.90
8095;DHT22;4090;49.270;8.696;2022-11-21T03:47:06;7.80;99.90
8095;DHT22;4090;49.270;8.696;2022-11-21T03:49:48;7.80;99.90
8095;DHT22;4090;49.270;8.696;2022-11-21T03:52:29;7.80;99.90
8095;DHT22;4090;49.270;8.696;2022-11-21T03:55:11;7.80;99.90
8095;DHT22;4090;49.270;8.696;2022-11-21T03:57:53;7.70;99.90
8095;DHT22;4090;49.270;8.696;2022-11-21T04:00:35;7.80;99.90
8095;DHT22;4090;49.270;8.696;2022-11-21T04:03:18;7.80;99.90
8095;DHT22;4090;49.270;8.696;2022-11-21T04:05:59;7.70;99.90
8095;DHT22;4090;49.270;8.696;2022-11-21T04:08:41;7.70;99.90
8095;DHT22;4090;49.270;8.696;2022-11-21T04:11:23;7.80;99.90
8095;DHT22;4090;49.270;8.696;2022-11-21T04:14:05;7.80;99.90
8095;DHT22;4090;49.270;8.696;2022-11-21T04:16:47;7.80;99.90
8095;DHT22;4090;49.270;8.696;2022-11-21T04:19:30;7.70;99.90
8095;DHT22;4090;49.270;8.696;2022-11-21T04:22:12;7.70;99.90
8095;DHT22;4090;49.270;8.696;2022-11-21T04:24:53;7.70;99.90
8095;DHT22;4090;49.270;8.696;2022-11-21T04:27:35;7.80;99.90
8095;DHT22;4090;49.270;8.696;2022-11-21T04:30:17;7.70;99.90
8095;DHT22;4090;49.270;8.696;2022-11-21T04:32:59;7.60;99.90
8095;DHT22;4090;49.270;8.696;2022-11-21T04:35:42;7.80;99.90
8095;DHT22;4090;49.270;8.696;2022-11-21T04:38:24;8.00;99.90
8095;DHT22;4090;49.270;8.696;2022-11-21T04:41:06;7.50;99.90
8095;DHT22;4090;49.270;8.696;2022-11-21T04:43:48;7.60;99.90
8095;DHT22;4090;49.270;8.696;2022-11-21T04:46:29;7.60;99.90
8095;DHT22;4090;49.270;8.696;2022-11-21T04:49:11;7.70;99.90
8095;DHT22;4090;49.270;8.696;2022-11-21T04:51:54;7.70;99.90
8095;DHT22;4090;49.270;8.696;2022-11-21T04:54:36;7.80;99.90
8095;DHT22;4090;49.270;8.696;2022-11-21T04:57:17;7.70;99.90
8095;DHT22;4090;49.270;8.696;2022-11-21T04:59:59;7.70;99.90
8095;DHT22;4090;49.270;8.696;2022-11-21T05:02:41;7.70;99.90
8095;DHT22;4090;49.270;8.696;2022-11-21T05:05:23;7.80;99.90
8095;DHT22;4090;49.270;8.696;2022-11-21T05:08:06;7.80;99.90
8095;DHT22;4090;49.270;8.696;2022-11-21T05:10:47;7.80;99.90
8095;DHT22;4090;49.270;8.696;2022-11-21T05:13:47;7.80;99.90
8095;DHT22;4090;49.270;8.696;2022-11-21T05:16:29;7.80;99.90
8095;DHT22;4090;49.270;8.696;2022-11-21T05:19:12;7.80;99.90
8095;DHT22;4090;49.270;8.696;2022-11-21T05:21:54;7.80;99.90
8095;DHT22;4090;49.270;8.696;2022-11-21T05:24:37;7.80;99.90
8095;DHT22;4090;49.270;8.696;2022-11-21T05:27:19;7.90;99.90
8095;DHT22;4090;49.270;8.696;2022-11-21T05:30:01;7.90;99.90
8095;DHT22;4090;49.270;8.696;2022-11-21T05:32:43;8.00;99.90
8095;DHT22;4090;49.270;8.696;2022-11-21T05:35:25;7.90;99.90
8095;DHT22;4090;49.270;8.696;2022-11-21T05:38:06;8.10;99.90
8095;DHT22;4090;49.270;8.696;2022-11-21T05:40:51;7.90;99.90
8095;DHT22;4090;49.270;8.696;2022-11-21T05:43:33;7.90;99.90
8095;DHT22;4090;49.270;8.696;2022-11-21T05:46:27;7.90;99.90
8095;DHT22;4090;49.270;8.696;2022-11-21T05:49:08;7.80;99.90
8095;DHT22;4090;49.270;8.696;2022-11-21T05:51:50;7.90;99.90
8095;DHT22;4090;49.270;8.696;2022-11-21T05:54:32;7.90;99.90
8095;DHT22;4090;49.270;8.696;2022-11-21T05:57:15;7.80;99.90
8095;DHT22;4090;49.270;8.696;2022-11-21T05:59:57;7.80;99.90
8095;DHT22;4090;49.270;8.696;2022-11-21T06:02:38;7.80;99.90
8095;DHT22;4090;49.270;8.696;2022-11-21T06:05:38;7.90;99.90
8095;DHT22;4090;49.270;8.696;2022-11-21T06:08:19;7.90;99.90
8095;DHT22;4090;49.270;8.696;2022-11-21T06:11:01;7.90;99.90
8095;DHT22;4090;49.270;8.696;2022-11-21T06:13:45;7.90;99.90
8095;DHT22;4090;49.270;8.696;2022-11-21T06:16:27;8.00;99.90
8095;DHT22;4090;49.270;8.696;2022-11-21T06:19:08;7.90;99.90
8095;DHT22;4090;49.270;8.696;2022-11-21T06:21:50;7.90;99.90
8095;DHT22;4090;49.270;8.696;2022-11-21T06:24:32;7.90;99.90
8095;DHT22;4090;49.270;8.696;2022-11-21T06:27:13;7.90;99.90
8095;DHT22;4090;49.270;8.696;2022-11-21T06:29:56;7.90;99.90
8095;DHT22;4090;49.270;8.696;2022-11-21T06:32:38;7.90;99.90
8095;DHT22;4090;49.270;8.696;2022-11-21T06:35:20;7.90;99.90
8095;DHT22;4090;49.270;8.696;2022-11-21T06:38:01;7.90;99.90
8095;DHT22;4090;49.270;8.696;2022-11-21T06:40:43;7.90;99.90
8095;DHT22;4090;49.270;8.696;2022-11-21T06:43:25;7.80;99.90
8095;DHT22;4090;49.270;8.696;2022-11-21T06:46:09;7.80;99.90
8095;DHT22;4090;49.270;8.696;2022-11-21T06:48:50;7.80;99.90
8095;DHT22;4090;49.270;8.696;2022-11-21T06:51:32;7.80;99.90
8095;DHT22;4090;49.270;8.696;2022-11-21T06:54:14;7.90;99.90
8095;DHT22;4090;49.270;8.696;2022-11-21T06:56:56;7.90;99.90
8095;DHT22;4090;49.270;8.696;2022-11-21T06:59:38;7.80;99.90
8095;DHT22;4090;49.270;8.696;2022-11-21T07:02:21;7.90;99.90
8095;DHT22;4090;49.270;8.696;2022-11-21T07:05:03;7.90;99.90
8095;DHT22;4090;49.270;8.696;2022-11-21T07:07:45;7.90;99.90
8095;DHT22;4090;49.270;8.696;2022-11-21T07:10:27;7.90;99.90
8095;DHT22;4090;49.270;8.696;2022-11-21T07:13:09;7.80;99.90
8095;DHT22;4090;49.270;8.696;2022-11-21T07:16:04;7.90;99.90
8095;DHT22;4090;49.270;8.696;2022-11-21T07:18:48;7.90;99.90
8095;DHT22;4090;49.270;8.696;2022-11-21T07:21:30;7.90;99.90
8095;DHT22;4090;49.270;8.696;2022-11-21T07:24:11;7.90;99.90
8095;DHT22;4090;49.270;8.696;2022-11-21T07:26:53;7.90;99.90
8095;DHT22;4090;49.270;8.696;2022-11-21T07:29:35;7.90;99.90
8095;DHT22;4090;49.270;8.696;2022-11-21T07:32:16;8.00;99.90
8095;DHT22;4090;49.270;8.696;2022-11-21T07:34:59;8.00;99.90
8095;DHT22;4090;49.270;8.696;2022-11-21T07:37:41;8.10;99.90
8095;DHT22;4090;49.270;8.696;2022-11-21T07:40:23;7.90;99.90
8095;DHT22;4090;49.270;8.696;2022-11-21T07:43:05;7.90;99.90
8095;DHT22;4090;49.270;8.696;2022-11-21T07:45:47;7.90;99.90
8095;DHT22;4090;49.270;8.696;2022-11-21T07:48:29;7.90;99.90
8095;DHT22;4090;49.270;8.696;2022-11-21T07:51:12;7.90;99.90
8095;DHT22;4090;49.270;8.696;2022-11-21T07:53:53;7.90;99.90
8095;DHT22;4090;49.270;8.696;2022-11-21T07:56:35;7.90;99.90
8095;DHT22;4090;49.270;8.696;2022-11-21T07:59:17;8.00;99.90
8095;DHT22;4090;49.270;8.696;2022-11-21T08:01:59;7.90;99.90
8095;DHT22;4090;49.270;8.696;2022-11-21T08:04:41;7.90;99.90
8095;DHT22;4090;49.270;8.696;2022-11-21T08:07:24;7.90;99.90
8095;DHT22;4090;49.270;8.696;2022-11-21T08:10:06;7.90;99.90
8095;DHT22;4090;49.270;8.696;2022-11-21T08:12:47;8.00;99.90
8095;DHT22;4090;49.270;8.696;2022-11-21T08:15:29;7.90;99.90
8095;DHT22;4090;49.270;8.696;2022-11-21T08:18:11;8.00;99.90
8095;DHT22;4090;49.270;8.696;2022-11-21T08:20:53;8.00;99.90
8095;DHT22;4090;49.270;8.696;2022-11-21T08:23:36;7.90;99.90
8095;DHT22;4090;49.270;8.696;2022-11-21T08:26:18;7.90;99.90
8095;DHT22;4090;49.270;8.696;2022-11-21T08:29:00;7.90;99.90
8095;DHT22;4090;49.270;8.696;2022-11-21T08:31:42;7.90;99.90
8095;DHT22;4090;49.270;8.696;2022-11-21T08:34:24;7.90;99.90
8095;DHT22;4090;49.270;8.696;2022-11-21T08:37:06;7.90;99.90
8095;DHT22;4090;49.270;8.696;2022-11-21T08:39:49;7.90;99.90
8095;DHT22;4090;49.270;8.696;2022-11-21T08:42:31;8.00;99.90
8095;DHT22;4090;49.270;8.696;2022-11-21T08:45:12;8.10;99.90
8095;DHT22;4090;49.270;8.696;2022-11-21T08:47:54;8.10;99.90
8095;DHT22;4090;49.270;8.696;2022-11-21T08:50:36;8.10;99.90
8095;DHT22;4090;49.270;8.696;2022-11-21T08:53:18;8.10;99.90
8095;DHT22;4090;49.270;8.696;2022-11-21T08:56:01;8.00;99.90
8095;DHT22;4090;49.270;8.696;2022-11-21T08:58:42;8.00;99.90
8095;DHT22;4090;49.270;8.696;2022-11-21T09:01:24;8.10;99.90
8095;DHT22;4090;49.270;8.696;2022-11-21T09:04:06;8.10;99.90
8095;DHT22;4090;49.270;8.696;2022-11-21T09:06:47;8.10;99.90
8095;DHT22;4090;49.270;8.696;2022-11-21T09:09:29;8.20;99.90
8095;DHT22;4090;49.270;8.696;2022-11-21T09:12:12;8.20;99.90
8095;DHT22;4090;49.270;8.696;2022-11-21T09:14:54;8.40;99.90
8095;DHT22;4090;49.270;8.696;2022-11-21T09:17:53;8.10;99.90
8095;DHT22;4090;49.270;8.696;2022-11-21T09:20:44;8.10;99.90
8095;DHT22;4090;49.270;8.696;2022-11-21T09:23:26;8.10;99.90
8095;DHT22;4090;49.270;8.696;2022-11-21T09:26:08;8.20;99.90
8095;DHT22;4090;49.270;8.696;2022-11-21T09:28:51;8.30;99.90
8095;DHT22;4090;49.270;8.696;2022-11-21T09:31:32;8.20;99.90
8095;DHT22;4090;49.270;8.696;2022-11-21T09:34:14;8.30;99.90
8095;DHT22;4090;49.270;8.696;2022-11-21T09:36:56;8.50;99.90
8095;DHT22;4090;49.270;8.696;2022-11-21T09:39:38;8.50;99.90
8095;DHT22;4090;49.270;8.696;2022-11-21T09:42:25;8.50;99.90
8095;DHT22;4090;49.270;8.696;2022-11-21T09:45:14;8.40;99.90
8095;DHT22;4090;49.270;8.696;2022-11-21T09:47:57;8.60;99.90
8095;DHT22;4090;49.270;8.696;2022-11-21T09:50:40;8.60;99.90
8095;DHT22;4090;49.270;8.696;2022-11-21T09:53:23;8.70;99.90
8095;DHT22;4090;49.270;8.696;2022-11-21T09:56:09;8.60;99.90
8095;DHT22;4090;49.270;8.696;2022-11-21T09:58:55;8.70;99.90
8095;DHT22;4090;49.270;8.696;2022-11-21T10:01:40;8.60;99.90
8095;DHT22;4090;49.270;8.696;2022-11-21T10:04:22;8.60;99.90
8095;DHT22;4090;49.270;8.696;2022-11-21T10:07:05;8.90;99.90
8095;DHT22;4090;49.270;8.696;2022-11-21T10:09:54;9.10;99.90
8095;DHT22;4090;49.270;8.696;2022-11-21T10:12:43;9.00;99.90
8095;DHT22;4090;49.270;8.696;2022-11-21T10:15:30;8.90;99.90
8095;DHT22;4090;49.270;8.696;2022-11-21T10:18:19;9.10;99.90
8095;DHT22;4090;49.270;8.696;2022-11-21T10:21:06;9.20;99.90
8095;DHT22;4090;49.270;8.696;2022-11-21T10:24:01;9.10;99.90
8095;DHT22;4090;49.270;8.696;2022-11-21T10:26:49;9.00;99.90
8095;DHT22;4090;49.270;8.696;2022-11-21T10:29:33;9.20;99.90
8095;DHT22;4090;49.270;8.696;2022-11-21T10:32:18;9.00;99.90
8095;DHT22;4090;49.270;8.696;2022-11-21T10:35:04;9.20;99.90
8095;DHT22;4090;49.270;8.696;2022-11-21T10:37:53;9.20;99.90
8095;DHT22;4090;49.270;8.696;2022-11-21T10:40:36;9.10;99.90
8095;DHT22;4090;49.270;8.696;2022-11-21T10:43:23;9.50;99.90
8095;DHT22;4090;49.270;8.696;2022-11-21T10:46:24;9.70;99.90
8095;DHT22;4090;49.270;8.696;2022-11-21T10:49:09;9.90;99.90
8095;DHT22;4090;49.270;8.696;2022-11-21T10:51:59;10.20;99.90
8095;DHT22;4090;49.270;8.696;2022-11-21T10:55:01;10.20;99.90
8095;DHT22;4090;49.270;8.696;2022-11-21T10:57:45;10.30;99.90
8095;DHT22;4090;49.270;8.696;2022-11-21T11:00:27;10.30;99.90
8095;DHT22;4090;49.270;8.696;2022-11-21T11:03:14;10.30;99.90
8095;DHT22;4090;49.270;8.696;2022-11-21T11:05:57;10.50;99.90
8095;DHT22;4090;49.270;8.696;2022-11-21T11:08:48;10.50;99.90
8095;DHT22;4090;49.270;8.696;2022-11-21T11:11:30;10.70;99.90
8095;DHT22;4090;49.270;8.696;2022-11-21T11:14:12;10.80;99.90
8095;DHT22;4090;49.270;8.696;2022-11-21T11:16:56;10.90;99.90
8095;DHT22;4090;49.270;8.696;2022-11-21T11:19:38;11.00;99.90
8095;DHT22;4090;49.270;8.696;2022-11-21T11:22:25;10.80;99.90
8095;DHT22;4090;49.270;8.696;2022-11-21T11:25:09;10.60;99.90
8095;DHT22;4090;49.270;8.696;2022-11-21T11:27:50;10.50;99.90
8095;DHT22;4090;49.270;8.696;2022-11-21T11:30:33;10.60;99.90
8095;DHT22;4090;49.270;8.696;2022-11-21T11:33:30;10.40;99.90
8095;DHT22;4090;49.270;8.696;2022-11-21T11:36:13;10.20;99.90
8095;DHT22;4090;49.270;8.696;2022-11-21T11:38:56;10.00;99.90
8095;DHT22;4090;49.270;8.696;2022-11-21T11:41:47;10.00;99.90
8095;DHT22;4090;49.270;8.696;2022-11-21T11:44:57;10.00;99.90
8095;DHT22;4090;49.270;8.696;2022-11-21T11:47:58;10.10;99.90
8095;DHT22;4090;49.270;8.696;2022-11-21T11:50:42;9.90;99.90
8095;DHT22;4090;49.270;8.696;2022-11-21T11:53:26;9.90;99.90
8095;DHT22;4090;49.270;8.696;2022-11-21T11:56:10;10.10;99.90
8095;DHT22;4090;49.270;8.696;2022-11-21T11:58:56;10.00;99.90
8095;DHT22;4090;49.270;8.696;2022-11-21T12:01:40;10.00;99.90
8095;DHT22;4090;49.270;8.696;2022-11-21T12:04:23;10.10;99.90
8095;DHT22;4090;49.270;8.696;2022-11-21T12:07:05;10.10;99.90
8095;DHT22;4090;49.270;8.696;2022-11-21T12:09:51;10.50;99.90
8095;DHT22;4090;49.270;8.696;2022-11-21T12:12:38;10.90;99.90
8095;DHT22;4090;49.270;8.696;2022-11-21T12:15:22;10.80;99.90
8095;DHT22;4090;49.270;8.696;2022-11-21T12:18:25;10.90;99.90
8095;DHT22;4090;49.270;8.696;2022-11-21T12:21:11;10.90;99.90
8095;DHT22;4090;49.270;8.696;2022-11-21T12:23:54;11.00;99.90
8095;DHT22;4090;49.270;8.696;2022-11-21T12:26:44;10.90;99.90
8095;DHT22;4090;49.270;8.696;2022-11-21T12:29:31;11.00;99.90
8095;DHT22;4090;49.270;8.696;2022-11-21T12:32:25;11.10;99.90
8095;DHT22;4090;49.270;8.696;2022-11-21T12:35:18;10.90;99.90
8095;DHT22;4090;49.270;8.696;2022-11-21T12:38:05;10.60;99.90
8095;DHT22;4090;49.270;8.696;2022-11-21T12:40:53;10.40;99.90
8095;DHT22;4090;49.270;8.696;2022-11-21T12:43:38;10.50;99.90
8095;DHT22;4090;49.270;8.696;2022-11-21T12:46:23;10.60;99.90
8095;DHT22;4090;49.270;8.696;2022-11-21T12:49:10;10.70;99.90
8095;DHT22;4090;49.270;8.696;2022-11-21T12:52:13;11.00;99.90
8095;DHT22;4090;49.270;8.696;2022-11-21T12:55:22;11.20;99.90
8095;DHT22;4090;49.270;8.696;2022-11-21T12:58:07;11.30;99.90
8095;DHT22;4090;49.270;8.696;2022-11-21T13:01:01;11.40;99.90
8095;DHT22;4090;49.270;8.696;2022-11-21T13:03:46;11.20;99.90
8095;DHT22;4090;49.270;8.696;2022-11-21T13:06:32;11.20;99.90
8095;DHT22;4090;49.270;8.696;2022-11-21T13:09:17;11.30;99.90
8095;DHT22;4090;49.270;8.696;2022-11-21T13:12:01;11.50;99.90
8095;DHT22;4090;49.270;8.696;2022-11-21T13:14:45;11.70;99.90
8095;DHT22;4090;49.270;8.696;2022-11-21T13:17:33;11.40;99.90
8095;DHT22;4090;49.270;8.696;2022-11-21T13:20:18;11.40;99.90
8095;DHT22;4090;49.270;8.696;2022-11-21T13:23:03;11.20;99.90
8095;DHT22;4090;49.270;8.696;2022-11-21T13:25:45;11.20;99.90
8095;DHT22;4090;49.270;8.696;2022-11-21T13:28:28;11.10;99.90
8095;DHT22;4090;49.270;8.696;2022-11-21T13:31:29;11.20;99.90
8095;DHT22;4090;49.270;8.696;2022-11-21T13:40:37;11.10;99.90
8095;DHT22;4090;49.270;8.696;2022-11-21T13:43:39;11.10;99.90
8095;DHT22;4090;49.270;8.696;2022-11-21T13:49:17;11.40;99.90
8095;DHT22;4090;49.270;8.696;2022-11-21T13:52:01;11.30;99.90
8095;DHT22;4090;49.270;8.696;2022-11-21T13:55:00;11.40;99.90
8095;DHT22;4090;49.270;8.696;2022-11-21T13:57:52;11.40;99.90
8095;DHT22;4090;49.270;8.696;2022-11-21T14:00:43;11.40;99.90
8095;DHT22;4090;49.270;8.696;2022-11-21T14:03:34;11.40;99.90
8095;DHT22;4090;49.270;8.696;2022-11-21T14:06:26;11.10;99.90
8095;DHT22;4090;49.270;8.696;2022-11-21T14:09:19;10.90;99.90
8095;DHT22;4090;49.270;8.696;2022-11-21T14:12:02;11.00;99.90
8095;DHT22;4090;49.270;8.696;2022-11-21T14:14:46;11.00;99.90
8095;DHT22;4090;49.270;8.696;2022-11-21T14:17:33;10.90;99.90
8095;DHT22;4090;49.270;8.696;2022-11-21T14:20:17;11.00;99.90
8095;DHT22;4090;49.270;8.696;2022-11-21T14:23:00;11.20;99.90
8095;DHT22;4090;49.270;8.696;2022-11-21T14:25:43;11.20;99.90
8095;DHT22;4090;49.270;8.696;2022-11-21T14:28:26;11.20;99.90
8095;DHT22;4090;49.270;8.696;2022-11-21T14:31:10;11.00;99.90
8095;DHT22;4090;49.270;8.696;2022-11-21T14:33:55;11.00;99.90
8095;DHT22;4090;49.270;8.696;2022-11-21T14:36:36;11.00;99.90
8095;DHT22;4090;49.270;8.696;2022-11-21T14:39:18;10.80;99.90
8095;DHT22;4090;49.270;8.696;2022-11-21T14:42:02;10.60;99.90
8095;DHT22;4090;49.270;8.696;2022-11-21T14:44:45;10.50;99.90
8095;DHT22;4090;49.270;8.696;2022-11-21T14:47:28;10.60;99.90
8095;DHT22;4090;49.270;8.696;2022-11-21T14:50:19;10.50;99.90
8095;DHT22;4090;49.270;8.696;2022-11-21T14:53:02;10.30;99.90
8095;DHT22;4090;49.270;8.696;2022-11-21T14:55:47;10.30;99.90
8095;DHT22;4090;49.270;8.696;2022-11-21T14:58:29;10.20;99.90
8095;DHT22;4090;49.270;8.696;2022-11-21T15:01:18;10.20;99.90
8095;DHT22;4090;49.270;8.696;2022-11-21T15:04:03;10.10;99.90
8095;DHT22;4090;49.270;8.696;2022-11-21T15:06:48;10.10;99.90
8095;DHT22;4090;49.270;8.696;2022-11-21T15:09:32;10.10;99.90
8095;DHT22;4090;49.270;8.696;2022-11-21T15:12:17;10.00;99.90
8095;DHT22;4090;49.270;8.696;2022-11-21T15:15:00;10.00;99.90
8095;DHT22;4090;49.270;8.696;2022-11-21T15:17:44;10.00;99.90
8095;DHT22;4090;49.270;8.696;2022-11-21T15:20:28;10.10;99.90
8095;DHT22;4090;49.270;8.696;2022-11-21T15:23:23;10.00;99.90
8095;DHT22;4090;49.270;8.696;2022-11-21T15:26:05;10.00;99.90
8095;DHT22;4090;49.270;8.696;2022-11-21T15:28:52;9.90;99.90
8095;DHT22;4090;49.270;8.696;2022-11-21T15:31:34;9.90;99.90
8095;DHT22;4090;49.270;8.696;2022-11-21T15:34:24;9.90;99.90
8095;DHT22;4090;49.270;8.696;2022-11-21T15:37:14;9.80;99.90
8095;DHT22;4090;49.270;8.696;2022-11-21T15:39:56;9.80;99.90
8095;DHT22;4090;49.270;8.696;2022-11-21T15:42:38;9.80;99.90
8095;DHT22;4090;49.270;8.696;2022-11-21T15:45:21;9.70;99.90
8095;DHT22;4090;49.270;8.696;2022-11-21T15:48:04;9.70;99.90
8095;DHT22;4090;49.270;8.696;2022-11-21T15:50:47;9.70;99.90
8095;DHT22;4090;49.270;8.696;2022-11-21T15:53:30;9.70;99.90
8095;DHT22;4090;49.270;8.696;2022-11-21T15:56:12;9.70;99.90
8095;DHT22;4090;49.270;8.696;2022-11-21T15:58:54;9.70;99.90
8095;DHT22;4090;49.270;8.696;2022-11-21T16:01:36;10.00;99.90
8095;DHT22;4090;49.270;8.696;2022-11-21T16:04:18;9.70;99.90
8095;DHT22;4090;49.270;8.696;2022-11-21T16:07:00;9.60;99.90
8095;DHT22;4090;49.270;8.696;2022-11-21T16:09:43;9.60;99.90
8095;DHT22;4090;49.270;8.696;2022-11-21T16:12:25;9.80;99.90
8095;DHT22;4090;49.270;8.696;2022-11-21T16:15:07;9.60;99.90
8095;DHT22;4090;49.270;8.696;2022-11-21T16:17:49;9.70;99.90
8095;DHT22;4090;49.270;8.696;2022-11-21T16:20:31;9.60;99.90
8095;DHT22;4090;49.270;8.696;2022-11-21T16:23:13;9.70;99.90
8095;DHT22;4090;49.270;8.696;2022-11-21T16:25:56;9.50;99.90
8095;DHT22;4090;49.270;8.696;2022-11-21T16:28:38;9.50;99.90
8095;DHT22;4090;49.270;8.696;2022-11-21T16:31:20;9.50;99.90
8095;DHT22;4090;49.270;8.696;2022-11-21T16:34:02;9.50;99.90
8095;DHT22;4090;49.270;8.696;2022-11-21T16:36:44;9.50;99.90
8095;DHT22;4090;49.270;8.696;2022-11-21T16:39:25;9.40;99.90
8095;DHT22;4090;49.270;8.696;2022-11-21T16:42:09;9.40;99.90
8095;DHT22;4090;49.270;8.696;2022-11-21T16:44:50;9.30;99.90
8095;DHT22;4090;49.270;8.696;2022-11-21T16:47:34;9.30;99.90
8095;DHT22;4090;49.270;8.696;2022-11-21T16:50:16;9.40;99.90
8095;DHT22;4090;49.270;8.696;2022-11-21T16:52:58;9.40;99.90
8095;DHT22;4090;49.270;8.696;2022-11-21T16:55:39;9.50;99.90
8095;DHT22;4090;49.270;8.696;2022-11-21T16:58:22;9.40;99.90
8095;DHT22;4090;49.270;8.696;2022-11-21T17:01:08;9.30;99.90
8095;DHT22;4090;49.270;8.696;2022-11-21T17:03:51;9.20;99.90
8095;DHT22;4090;49.270;8.696;2022-11-21T17:06:33;9.20;99.90
8095;DHT22;4090;49.270;8.696;2022-11-21T17:09:15;9.20;99.90
8095;DHT22;4090;49.270;8.696;2022-11-21T17:11:56;9.20;99.90
8095;DHT22;4090;49.270;8.696;2022-11-21T17:14:39;9.20;99.90
8095;DHT22;4090;49.270;8.696;2022-11-21T17:17:21;9.10;99.90
8095;DHT22;4090;49.270;8.696;2022-11-21T17:20:03;9.10;99.90
8095;DHT22;4090;49.270;8.696;2022-11-21T17:22:45;9.10;99.90
8095;DHT22;4090;49.270;8.696;2022-11-21T17:25:27;9.10;99.90
8095;DHT22;4090;49.270;8.696;2022-11-21T17:28:09;9.10;99.90
8095;DHT22;4090;49.270;8.696;2022-11-21T17:30:52;9.20;99.90
8095;DHT22;4090;49.270;8.696;2022-11-21T17:33:34;9.20;99.90
8095;DHT22;4090;49.270;8.696;2022-11-21T17:36:16;9.10;99.90
8095;DHT22;4090;49.270;8.696;2022-11-21T17:38:58;9.00;99.90
8095;DHT22;4090;49.270;8.696;2022-11-21T17:41:40;8.90;99.90
8095;DHT22;4090;49.270;8.696;2022-11-21T17:44:22;9.00;99.90
8095;DHT22;4090;49.270;8.696;2022-11-21T17:47:05;9.00;99.90
8095;DHT22;4090;49.270;8.696;2022-11-21T17:49:46;8.90;99.90
8095;DHT22;4090;49.270;8.696;2022-11-21T17:52:28;8.90;99.90
8095;DHT22;4090;49.270;8.696;2022-11-21T17:55:10;8.80;99.90
8095;DHT22;4090;49.270;8.696;2022-11-21T17:57:51;8.80;99.90
8095;DHT22;4090;49.270;8.696;2022-11-21T18:00:33;8.80;99.90
8095;DHT22;4090;49.270;8.696;2022-11-21T18:03:16;8.80;99.90
8095;DHT22;4090;49.270;8.696;2022-11-21T18:05:58;8.80;99.90
8095;DHT22;4090;49.270;8.696;2022-11-21T18:08:41;8.80;99.90
8095;DHT22;4090;49.270;8.696;2022-11-21T18:11:23;8.90;99.90
8095;DHT22;4090;49.270;8.696;2022-11-21T18:14:08;8.90;99.90